Chinle, Arizona
Current Conditions -  °F | °C
As of 9:53 AM on Thursday 30 Oct 2014 (Local Time) from KRQE Reporting Station
Clear Clear  
Wind Chill: 44°   Ceiling: Unl
Heat Index: 47°   Visibility: 10mi
Dew Point: 15°   Wind: 6mph
Humidity: 28%   Direction: 230°SW
Pressure: 30.4"   Gusts: NA
Location:  36.15°N, 109.55°W
Report Text: KRQE 301553Z AUTO 23005KT 10SM CLR 08/M09 A3040 RMK AO2 SLP254 T00831094 TSNO
Loading
Personal Weather Stations






























Interactive Weather Map
Tropical Storm Tracking
New forecast layout! Learn more

10-Day Weather Forecast

Advertisements
Track Severe Weather on mobile